createdAt,value
2019-05-05T00:01:14.663Z,4.70
2019-05-05T00:03:46.072Z,4.70
2019-05-05T00:06:15.575Z,4.70
2019-05-05T00:08:45.713Z,4.60
2019-05-05T00:11:35.164Z,4.60
2019-05-05T00:14:06.257Z,4.60
2019-05-05T00:16:40.097Z,4.60
2019-05-05T00:19:09.425Z,4.50
2019-05-05T00:21:38.801Z,4.50
2019-05-05T00:24:08.132Z,4.50
2019-05-05T00:26:37.604Z,4.40
2019-05-05T00:29:08.023Z,4.40
2019-05-05T00:31:37.475Z,4.30
2019-05-05T00:34:06.876Z,4.30
2019-05-05T00:36:39.238Z,4.30
2019-05-05T00:39:10.245Z,4.30
2019-05-05T00:41:39.667Z,4.30
2019-05-05T00:44:09.050Z,4.30
2019-05-05T00:46:55.066Z,4.20
2019-05-05T00:49:26.728Z,4.20
2019-05-05T00:51:56.437Z,4.20
2019-05-05T00:54:25.858Z,4.20
2019-05-05T00:56:55.272Z,4.10
2019-05-05T00:59:26.234Z,4.10
2019-05-05T01:02:15.056Z,4.00
2019-05-05T01:04:46.157Z,4.00
2019-05-05T01:07:16.450Z,4.00
2019-05-05T01:09:46.198Z,3.90
2019-05-05T01:12:16.060Z,3.90
2019-05-05T01:14:45.504Z,3.90
2019-05-05T01:17:14.940Z,3.90
2019-05-05T01:19:46.703Z,3.90
2019-05-05T01:22:15.402Z,3.90
2019-05-05T01:24:45.843Z,3.80
2019-05-05T01:27:15.425Z,3.80
2019-05-05T01:29:45.276Z,3.80
2019-05-05T01:32:16.527Z,3.70
2019-05-05T01:34:46.583Z,3.70
2019-05-05T01:37:17.699Z,3.70
2019-05-05T01:39:51.081Z,3.70
2019-05-05T01:42:20.448Z,3.70
2019-05-05T01:44:49.783Z,3.60
2019-05-05T01:47:19.136Z,3.60
2019-05-05T01:49:48.469Z,3.60
2019-05-05T01:52:17.838Z,3.60
2019-05-05T01:54:47.200Z,3.50
2019-05-05T01:57:16.620Z,3.50
2019-05-05T01:59:49.484Z,3.50
2019-05-05T02:02:18.820Z,3.50
2019-05-05T02:04:48.252Z,3.50
2019-05-05T02:07:17.663Z,3.50
2019-05-05T02:09:47.012Z,3.50
2019-05-05T02:12:17.624Z,3.40
2019-05-05T02:14:46.980Z,3.40
2019-05-05T02:17:16.329Z,3.40
2019-05-05T02:19:45.720Z,3.40
2019-05-05T02:22:15.238Z,3.40
2019-05-05T02:24:44.664Z,3.50
2019-05-05T02:27:14.780Z,3.40
2019-05-05T02:29:55.041Z,3.50
2019-05-05T02:32:26.107Z,3.40
2019-05-05T02:35:00.156Z,3.40
2019-05-05T02:37:29.575Z,3.30
2019-05-05T02:40:04.360Z,3.30
2019-05-05T02:42:30.825Z,3.30
2019-05-05T02:45:05.462Z,3.30
2019-05-05T02:47:47.955Z,3.20
2019-05-05T02:50:18.181Z,3.20
2019-05-05T02:52:48.133Z,3.20
2019-05-05T02:55:19.517Z,3.20
2019-05-05T02:58:08.278Z,3.20
2019-05-05T03:00:56.040Z,3.20
2019-05-05T03:03:26.006Z,3.20
2019-05-05T03:05:55.723Z,3.20
2019-05-05T03:08:26.214Z,3.20
2019-05-05T03:10:57.193Z,3.10
2019-05-05T03:13:26.873Z,3.10
2019-05-05T03:16:23.748Z,3.00
2019-05-05T03:18:54.578Z,3.10
2019-05-05T03:21:24.325Z,3.10
2019-05-05T03:23:54.748Z,3.10
2019-05-05T03:26:24.639Z,3.10
2019-05-05T03:28:55.759Z,3.10
2019-05-05T03:31:26.552Z,3.00
2019-05-05T03:33:57.190Z,3.00
2019-05-05T03:36:28.162Z,3.00
2019-05-05T03:38:58.113Z,3.00
2019-05-05T03:41:30.453Z,3.10
2019-05-05T03:44:01.406Z,3.00
2019-05-05T03:46:34.442Z,3.00
2019-05-05T03:49:04.897Z,3.00
2019-05-05T03:51:34.662Z,3.00
2019-05-05T03:54:04.573Z,3.00
2019-05-05T03:56:34.749Z,2.90
2019-05-05T03:59:06.407Z,2.90
2019-05-05T04:01:39.192Z,2.80
2019-05-05T04:04:26.695Z,2.80
2019-05-05T04:06:57.726Z,2.90
2019-05-05T04:09:27.068Z,2.90
2019-05-05T04:11:56.501Z,2.90
2019-05-05T04:14:25.925Z,2.90
2019-05-05T04:16:57.355Z,3.00
2019-05-05T04:19:28.336Z,3.00
2019-05-05T04:21:57.720Z,3.10
2019-05-05T04:24:27.151Z,3.10
2019-05-05T04:26:56.544Z,3.10
2019-05-05T04:29:25.857Z,3.10
2019-05-05T04:31:55.267Z,3.10
2019-05-05T04:34:24.597Z,3.10
2019-05-05T04:36:54.653Z,3.10
2019-05-05T04:39:24.177Z,3.10
2019-05-05T04:41:54.588Z,3.20
2019-05-05T04:44:24.091Z,3.20
2019-05-05T04:46:55.078Z,3.20
2019-05-05T04:49:34.711Z,3.30
2019-05-05T04:52:14.587Z,3.30
2019-05-05T04:54:48.597Z,3.40
2019-05-05T04:57:17.935Z,3.40
2019-05-05T04:59:48.815Z,3.50
2019-05-05T05:02:23.600Z,3.50
2019-05-05T05:04:54.743Z,3.50
2019-05-05T05:07:25.779Z,3.50
2019-05-05T05:09:55.105Z,3.60
2019-05-05T05:12:24.517Z,3.70
2019-05-05T05:14:54.654Z,3.80
2019-05-05T05:17:34.760Z,3.90
2019-05-05T05:20:06.619Z,3.90
2019-05-05T05:22:35.961Z,4.00
2019-05-05T05:25:06.725Z,4.10
2019-05-05T05:27:37.679Z,4.20
2019-05-05T05:30:07.736Z,4.30
2019-05-05T05:32:39.753Z,4.40
2019-05-05T05:35:08.227Z,4.40
2019-05-05T05:37:37.667Z,4.50
2019-05-05T05:40:08.999Z,4.60
2019-05-05T05:42:38.347Z,4.60
2019-05-05T05:45:09.556Z,4.70
2019-05-05T05:47:58.553Z,4.80
2019-05-05T05:50:33.954Z,4.90
2019-05-05T05:53:04.682Z,5.00
2019-05-05T05:55:34.461Z,5.10
2019-05-05T05:58:04.764Z,5.10
2019-05-05T06:00:34.586Z,5.20
2019-05-05T06:03:04.114Z,5.30
2019-05-05T06:05:34.838Z,5.30
2019-05-05T06:08:04.697Z,5.50
2019-05-05T06:10:34.459Z,5.60
2019-05-05T06:13:04.249Z,5.60
2019-05-05T06:15:35.225Z,5.60
2019-05-05T06:18:04.876Z,5.80
2019-05-05T06:20:34.571Z,6.10
2019-05-05T06:23:04.289Z,6.30
2019-05-05T06:25:34.397Z,6.30
2019-05-05T06:28:04.401Z,6.40
2019-05-05T06:30:34.986Z,6.50
2019-05-05T06:33:05.448Z,6.50
2019-05-05T06:35:34.794Z,6.60
2019-05-05T06:38:04.674Z,6.60
2019-05-05T06:40:35.925Z,6.70
2019-05-05T06:43:18.792Z,6.70
2019-05-05T06:45:49.773Z,6.90
2019-05-05T06:48:19.109Z,7.00
2019-05-05T06:50:48.463Z,7.20
2019-05-05T06:53:17.812Z,7.30
2019-05-05T06:55:47.181Z,7.40
2019-05-05T06:58:16.537Z,7.60
2019-05-05T07:00:45.895Z,7.70
2019-05-05T07:03:15.290Z,7.70
2019-05-05T07:05:44.616Z,7.80
2019-05-05T07:08:14.016Z,7.80
2019-05-05T07:10:44.403Z,7.90
2019-05-05T07:13:14.126Z,8.10
2019-05-05T07:15:44.571Z,8.20
2019-05-05T07:18:14.947Z,8.50
2019-05-05T07:20:44.367Z,8.60
2019-05-05T07:23:19.667Z,8.60
2019-05-05T07:25:49.014Z,8.70
2019-05-05T07:28:23.708Z,8.80
2019-05-05T07:30:54.824Z,8.80
2019-05-05T07:33:24.329Z,8.80
2019-05-05T07:36:01.375Z,8.80
2019-05-05T07:38:28.407Z,8.90
2019-05-05T07:40:57.901Z,9.00
2019-05-05T07:43:29.667Z,9.00
2019-05-05T07:46:01.390Z,9.10
2019-05-05T07:48:33.476Z,9.10
2019-05-05T07:51:05.611Z,9.30
2019-05-05T07:53:35.150Z,9.40
2019-05-05T07:56:07.644Z,9.40
2019-05-05T07:58:37.179Z,9.40
2019-05-05T08:01:07.140Z,9.40
2019-05-05T08:03:36.655Z,9.50
2019-05-05T08:06:06.227Z,9.70
2019-05-05T08:08:35.575Z,9.90
2019-05-05T08:11:04.960Z,10.00
2019-05-05T08:13:34.558Z,10.00
2019-05-05T08:16:06.633Z,10.20
2019-05-05T08:18:38.369Z,10.30
2019-05-05T08:21:08.441Z,10.20
2019-05-05T08:23:39.748Z,10.30
2019-05-05T08:26:10.720Z,10.30
2019-05-05T08:28:47.569Z,10.40
2019-05-05T08:31:21.643Z,10.60
2019-05-05T08:33:54.559Z,10.90
2019-05-05T08:36:23.539Z,11.20
2019-05-05T08:38:54.645Z,11.60
2019-05-05T08:41:24.473Z,12.00
2019-05-05T08:43:54.353Z,12.00
2019-05-05T08:46:24.757Z,12.10
2019-05-05T08:48:54.696Z,12.20
2019-05-05T08:51:24.758Z,12.50
2019-05-05T08:53:55.063Z,12.30
2019-05-05T08:56:24.782Z,11.80
2019-05-05T09:41:44.575Z,11.60
2019-05-05T09:44:14.310Z,11.30
2019-05-05T09:46:44.611Z,11.10
2019-05-05T09:49:15.186Z,10.90
2019-05-05T09:51:44.584Z,10.80
2019-05-05T09:54:16.730Z,11.20
2019-05-05T09:56:44.982Z,11.60
2019-05-05T09:59:14.384Z,11.80
2019-05-05T10:01:44.471Z,12.10
2019-05-05T10:04:14.438Z,12.10
2019-05-05T10:06:47.717Z,12.00
2019-05-05T10:09:14.820Z,11.70
2019-05-05T10:11:44.974Z,11.60
2019-05-05T10:14:15.059Z,11.70
2019-05-05T10:16:44.767Z,12.10
2019-05-05T10:19:14.261Z,12.60
2019-05-05T10:21:44.404Z,13.10
2019-05-05T10:24:30.988Z,13.40
2019-05-05T10:26:58.830Z,13.40
2019-05-05T10:29:28.529Z,13.50
2019-05-05T10:31:59.891Z,13.20
2019-05-05T10:34:30.875Z,13.20
2019-05-05T10:37:00.199Z,13.40
2019-05-05T10:39:37.158Z,13.60
2019-05-05T10:42:06.739Z,13.80
2019-05-05T10:44:36.558Z,13.60
2019-05-05T10:47:06.363Z,13.50
2019-05-05T10:49:36.200Z,13.50
2019-05-05T10:52:05.986Z,13.20
2019-05-05T10:54:44.127Z,13.10
2019-05-05T10:57:09.190Z,12.90
2019-05-05T10:59:38.674Z,12.60
2019-05-05T11:02:08.362Z,12.60
2019-05-05T11:04:38.119Z,13.00
2019-05-05T11:07:07.725Z,13.50
2019-05-05T11:09:37.395Z,13.90
2019-05-05T11:12:07.238Z,14.10
2019-05-05T11:14:37.945Z,13.90
2019-05-05T11:17:07.654Z,13.90
2019-05-05T11:19:37.536Z,13.30
2019-05-05T11:22:07.319Z,13.20
2019-05-05T11:24:37.034Z,13.00
2019-05-05T11:27:06.662Z,13.10
2019-05-05T11:29:39.860Z,13.10
2019-05-05T11:32:17.906Z,13.10
2019-05-05T11:34:48.222Z,13.00
2019-05-05T11:37:21.457Z,12.90
2019-05-05T11:39:50.897Z,13.00
2019-05-05T11:42:20.583Z,13.40
2019-05-05T11:44:50.056Z,13.50
2019-05-05T11:47:20.453Z,13.70
2019-05-05T11:49:54.538Z,13.60
2019-05-05T11:52:22.432Z,13.20
2019-05-05T11:54:51.783Z,13.00
2019-05-05T11:57:21.159Z,12.90
2019-05-05T11:59:50.524Z,12.90
2019-05-05T12:02:19.972Z,12.90
2019-05-05T12:04:49.712Z,12.90
2019-05-05T12:07:19.060Z,12.80
2019-05-05T12:09:50.071Z,13.00
2019-05-05T12:12:19.432Z,13.20
2019-05-05T12:14:49.347Z,13.20
2019-05-05T12:17:20.417Z,13.30
2019-05-05T12:19:50.113Z,13.50
2019-05-05T12:22:19.529Z,13.40
2019-05-05T12:24:49.857Z,14.00
2019-05-05T12:27:24.602Z,14.40
2019-05-05T12:29:55.399Z,14.80
2019-05-05T12:32:24.757Z,14.40
2019-05-05T12:34:54.224Z,14.30
2019-05-05T12:37:24.815Z,14.10
2019-05-05T12:39:54.631Z,14.20
2019-05-05T12:42:24.340Z,14.10
2019-05-05T12:44:56.454Z,14.30
2019-05-05T12:47:35.967Z,14.40
2019-05-05T12:50:06.857Z,14.40
2019-05-05T12:52:36.304Z,15.10
2019-05-05T12:55:06.494Z,15.50
2019-05-05T12:57:35.811Z,15.20
2019-05-05T13:00:08.048Z,15.00
2019-05-05T13:02:37.469Z,14.90
2019-05-05T13:05:07.932Z,15.00
2019-05-05T13:07:39.127Z,15.20
2019-05-05T13:10:09.994Z,14.90
2019-05-05T13:12:39.469Z,14.50
2019-05-05T13:15:09.291Z,13.70
2019-05-05T13:17:39.721Z,13.40
2019-05-05T13:20:10.900Z,13.00
2019-05-05T13:22:48.118Z,13.00
2019-05-05T13:25:25.319Z,13.20
2019-05-05T13:27:57.403Z,13.50
2019-05-05T13:30:27.104Z,14.30
2019-05-05T13:32:56.672Z,15.40
2019-05-05T13:35:26.043Z,16.60
2019-05-05T13:37:55.393Z,16.80
2019-05-05T13:40:24.803Z,16.10
2019-05-05T13:42:54.797Z,15.30
2019-05-05T13:45:31.747Z,14.60
2019-05-05T13:48:03.487Z,14.50
2019-05-05T13:50:34.693Z,14.00
2019-05-05T13:53:04.163Z,13.70
2019-05-05T13:55:35.245Z,13.40
2019-05-05T13:58:08.757Z,13.30
2019-05-05T14:00:37.346Z,13.40
2019-05-05T14:03:06.755Z,13.60
2019-05-05T14:05:36.140Z,13.40
2019-05-05T14:08:05.535Z,13.40
2019-05-05T14:10:34.887Z,13.40
2019-05-05T14:13:04.217Z,13.60
2019-05-05T14:15:34.127Z,13.70
2019-05-05T14:18:04.987Z,13.90
2019-05-05T14:20:34.595Z,13.70
2019-05-05T14:23:04.710Z,13.90
2019-05-05T14:25:34.122Z,14.00
2019-05-05T14:28:04.375Z,14.20
2019-05-05T14:30:35.504Z,14.30
2019-05-05T14:33:08.545Z,14.40
2019-05-05T14:35:39.515Z,14.10
2019-05-05T14:38:11.001Z,14.10
2019-05-05T14:40:41.675Z,14.00
2019-05-05T14:43:11.103Z,14.00
2019-05-05T14:45:40.431Z,14.10
2019-05-05T14:48:11.432Z,14.10
2019-05-05T14:50:40.859Z,14.00
2019-05-05T14:53:10.271Z,13.90
2019-05-05T14:55:39.648Z,13.90
2019-05-05T14:58:09.040Z,13.90
2019-05-05T15:00:39.522Z,14.00
2019-05-05T15:03:09.141Z,13.70
2019-05-05T15:05:46.161Z,13.80
2019-05-05T15:08:17.169Z,13.70
2019-05-05T15:10:48.140Z,13.70
2019-05-05T15:13:18.290Z,13.80
2019-05-05T15:15:48.969Z,13.90
2019-05-05T15:18:18.340Z,14.20
2019-05-05T15:20:47.755Z,14.50
2019-05-05T15:23:17.218Z,14.60
2019-05-05T15:25:47.644Z,14.50
2019-05-05T15:28:17.094Z,14.30
2019-05-05T15:30:46.501Z,14.10
2019-05-05T15:33:15.875Z,14.20
2019-05-05T15:35:46.571Z,13.90
2019-05-05T15:38:16.133Z,13.70
2019-05-05T15:40:47.928Z,13.60
2019-05-05T15:43:17.672Z,13.50
2019-05-05T15:45:47.108Z,13.50
2019-05-05T15:48:16.438Z,13.60
2019-05-05T15:50:45.771Z,13.70
2019-05-05T15:53:15.158Z,13.90
2019-05-05T15:55:45.338Z,13.90
2019-05-05T15:58:16.287Z,14.00
2019-05-05T16:00:45.621Z,13.90
2019-05-05T16:03:15.039Z,13.60
2019-05-05T16:05:44.389Z,13.50
2019-05-05T16:08:14.155Z,13.30
2019-05-05T16:10:46.331Z,13.30
2019-05-05T16:13:15.138Z,13.30
2019-05-05T16:15:46.226Z,13.20
2019-05-05T16:18:17.293Z,13.20
2019-05-05T16:21:04.683Z,13.20
2019-05-05T16:23:47.662Z,13.10
2019-05-05T16:26:17.008Z,13.10
2019-05-05T16:28:46.505Z,12.90
2019-05-05T16:31:15.987Z,12.80
2019-05-05T16:33:45.580Z,12.80
2019-05-05T16:36:15.503Z,12.60
2019-05-05T16:38:45.530Z,12.70
2019-05-05T16:41:15.421Z,12.50
2019-05-05T16:43:44.980Z,12.40
2019-05-05T16:46:17.030Z,12.40
2019-05-05T16:48:45.369Z,12.20
2019-05-05T16:51:16.404Z,12.10
2019-05-05T16:53:45.837Z,12.00
2019-05-05T16:56:16.510Z,12.00
2019-05-05T16:58:46.071Z,12.00
2019-05-05T17:01:17.007Z,12.00
2019-05-05T17:03:46.687Z,12.10
2019-05-05T17:06:16.076Z,12.10
2019-05-05T17:08:45.752Z,12.00
2019-05-05T17:11:15.299Z,12.00
2019-05-05T17:13:46.356Z,11.90
2019-05-05T17:16:35.295Z,11.90
2019-05-05T17:19:16.333Z,11.90
2019-05-05T17:21:47.388Z,11.80
2019-05-05T17:24:16.977Z,11.90
2019-05-05T17:26:46.392Z,11.90
2019-05-05T17:29:16.838Z,11.80
2019-05-05T17:31:46.258Z,11.80
2019-05-05T17:34:15.716Z,11.70
2019-05-05T17:36:45.386Z,11.70
2019-05-05T17:39:36.071Z,11.60
2019-05-05T17:42:07.117Z,11.50
2019-05-05T17:44:44.405Z,11.50
2019-05-05T17:47:30.833Z,11.50
2019-05-05T17:50:04.031Z,11.40
2019-05-05T17:52:36.792Z,11.30
2019-05-05T17:55:27.469Z,11.20
2019-05-05T17:58:01.583Z,11.20
2019-05-05T18:00:30.438Z,11.10
2019-05-05T18:02:59.932Z,10.90
2019-05-05T18:05:48.648Z,10.90
2019-05-05T18:08:19.688Z,10.80
2019-05-05T18:10:50.539Z,10.70
2019-05-05T18:13:22.061Z,10.70
2019-05-05T18:15:56.759Z,10.60
2019-05-05T18:18:26.772Z,10.50
2019-05-05T18:20:58.060Z,10.40
2019-05-05T18:23:28.118Z,10.30
2019-05-05T18:26:01.508Z,10.20
2019-05-05T18:28:30.965Z,10.10
2019-05-05T18:31:01.469Z,10.10
2019-05-05T18:33:31.067Z,10.00
2019-05-05T18:36:00.833Z,10.00
2019-05-05T18:38:30.497Z,10.00
2019-05-05T18:41:03.607Z,9.90
2019-05-05T18:43:40.291Z,9.90
2019-05-05T18:46:09.966Z,9.90
2019-05-05T18:48:40.307Z,9.90
2019-05-05T18:51:09.722Z,9.80
2019-05-05T18:53:39.482Z,9.80
2019-05-05T18:56:08.946Z,9.80
2019-05-05T18:58:38.362Z,9.80
2019-05-05T19:01:09.545Z,9.80
2019-05-05T19:03:47.766Z,9.70
2019-05-05T19:06:18.862Z,9.70
2019-05-05T19:08:54.582Z,9.70
2019-05-05T19:11:24.578Z,9.70
2019-05-05T19:13:54.163Z,9.70
2019-05-05T19:16:23.805Z,9.70
2019-05-05T19:18:55.446Z,9.70
2019-05-05T19:21:26.098Z,9.70
2019-05-05T19:23:55.547Z,9.70
2019-05-05T19:26:24.995Z,9.70
2019-05-05T19:28:55.428Z,9.70
2019-05-05T19:31:24.981Z,9.60
2019-05-05T19:33:56.041Z,9.60
2019-05-05T19:36:27.512Z,9.50
2019-05-05T19:38:57.159Z,9.50
2019-05-05T19:41:27.751Z,9.40
2019-05-05T19:43:57.208Z,9.40
2019-05-05T19:46:31.256Z,9.30
2019-05-05T19:49:20.113Z,9.20
2019-05-05T19:51:50.063Z,9.10
2019-05-05T19:54:19.442Z,9.00
2019-05-05T19:56:48.958Z,8.90
2019-05-05T19:59:18.388Z,8.80
2019-05-05T20:01:47.830Z,8.70
2019-05-05T20:04:17.205Z,8.60
2019-05-05T20:06:46.517Z,8.60
2019-05-05T20:09:16.223Z,8.60
2019-05-05T20:11:45.662Z,8.60
2019-05-05T20:14:17.869Z,8.60
2019-05-05T20:17:00.844Z,8.60
2019-05-05T20:19:34.191Z,8.50
2019-05-05T20:22:03.603Z,8.50
2019-05-05T20:24:33.698Z,8.40
2019-05-05T20:27:05.325Z,8.40
2019-05-05T20:29:37.347Z,8.30
2019-05-05T20:32:05.704Z,8.30
2019-05-05T20:34:54.036Z,8.20
2019-05-05T20:37:24.641Z,8.00
2019-05-05T20:39:54.417Z,8.00
2019-05-05T20:42:23.919Z,7.90
2019-05-05T20:44:54.435Z,7.80
2019-05-05T20:47:23.971Z,7.80
2019-05-05T20:49:54.268Z,7.80
2019-05-05T20:52:23.779Z,7.80
2019-05-05T20:54:53.878Z,7.80
2019-05-05T20:57:24.523Z,7.80
2019-05-05T20:59:53.868Z,7.80
2019-05-05T21:02:24.324Z,7.90
2019-05-05T21:04:54.178Z,7.80
2019-05-05T21:07:26.464Z,7.80
2019-05-05T21:09:56.376Z,7.80
2019-05-05T21:12:39.145Z,7.90
2019-05-05T21:14:56.800Z,8.00
2019-05-05T21:17:26.204Z,8.00
2019-05-05T21:19:55.620Z,8.10
2019-05-05T21:22:44.274Z,8.30
2019-05-05T21:25:24.807Z,8.30
2019-05-05T21:27:54.125Z,8.40
2019-05-05T21:30:24.666Z,8.40
2019-05-05T21:32:54.986Z,8.40
2019-05-05T21:35:25.354Z,8.50
2019-05-05T21:37:55.820Z,8.50
2019-05-05T21:40:26.019Z,8.60
2019-05-05T21:42:55.361Z,8.60
2019-05-05T21:45:24.782Z,8.60
2019-05-05T21:47:54.931Z,8.70
2019-05-05T21:50:33.885Z,8.70
2019-05-05T21:53:08.086Z,8.70
2019-05-05T21:55:39.080Z,8.70
2019-05-05T21:58:15.839Z,8.60
2019-05-05T22:00:50.131Z,8.50
2019-05-05T22:03:25.074Z,8.50
2019-05-05T22:05:56.009Z,8.40
2019-05-05T22:08:25.465Z,8.30
2019-05-05T22:10:54.820Z,8.30
2019-05-05T22:13:25.670Z,8.20
2019-05-05T22:15:55.017Z,8.20
2019-05-05T22:18:24.418Z,8.10
2019-05-05T22:20:58.342Z,8.10
2019-05-05T22:23:33.987Z,8.10
2019-05-05T22:26:11.329Z,8.10
2019-05-05T22:28:40.707Z,8.00
2019-05-05T22:31:10.073Z,8.10
2019-05-05T22:33:39.428Z,8.10
2019-05-05T22:36:08.758Z,8.10
2019-05-05T22:38:38.090Z,8.10
2019-05-05T22:41:07.403Z,8.10
2019-05-05T22:43:36.740Z,8.00
2019-05-05T22:46:06.065Z,7.90
2019-05-05T22:48:35.400Z,7.80
2019-05-05T22:51:04.804Z,7.80
2019-05-05T22:53:34.704Z,7.80
2019-05-05T22:56:04.379Z,7.80
2019-05-05T22:58:34.955Z,7.70
2019-05-05T23:01:04.681Z,7.70
2019-05-05T23:03:40.365Z,7.70
2019-05-05T23:06:11.382Z,7.60
2019-05-05T23:08:41.200Z,7.60
2019-05-05T23:11:12.043Z,7.50
2019-05-05T23:13:44.368Z,7.40
2019-05-05T23:16:18.306Z,7.40
2019-05-05T23:18:47.651Z,7.30
2019-05-05T23:21:27.567Z,7.30
2019-05-05T23:24:07.501Z,7.20
2019-05-05T23:26:44.531Z,7.10
2019-05-05T23:29:13.929Z,7.10
2019-05-05T23:31:44.482Z,7.00
2019-05-05T23:34:14.762Z,7.00
2019-05-05T23:36:44.415Z,7.00
2019-05-05T23:39:13.820Z,7.00
2019-05-05T23:41:43.167Z,6.90
2019-05-05T23:44:14.351Z,6.90
2019-05-05T23:46:43.928Z,6.90
2019-05-05T23:49:14.397Z,6.90
2019-05-05T23:51:44.112Z,6.90
2019-05-05T23:54:13.710Z,6.90
2019-05-05T23:56:44.106Z,6.80
2019-05-05T23:59:19.286Z,6.80
